Time;durP1;ratioP1;P1;durP2;ratioP2;P2;SDS_P1;SDS_P2;PMS_P1;PMS_P2;Temp;Humidity;BMP_temperature;BMP_pressure;BME280_temperature;BME280_humidity;BME280_pressure;Samples;Min_cycle;Max_cycle;Signal;HPM_P1;HPM_P2
2023/08/12 00:02:06;;;;;;;;;;;24.50;48.70;;;;;;5094179;28;20377;-58
2023/08/12 00:04:33;;;;;;;;;;;24.50;48.70;;;;;;5094451;28;20340;-57
2023/08/12 00:07:00;;;;;;;;;;;24.50;48.70;;;;;;5094171;28;19924;-58
2023/08/12 00:09:27;;;;;;;;;;;24.50;48.70;;;;;;5093896;28;20369;-58
2023/08/12 00:11:54;;;;;;;;;;;24.50;48.70;;;;;;5094084;28;19977;-57
2023/08/12 00:14:21;;;;;;;;;;;24.50;49.00;;;;;;5094129;28;19955;-57
2023/08/12 00:16:49;;;;;;;;;;;24.50;48.70;;;;;;5094184;28;19967;-57
2023/08/12 00:19:16;;;;;;;;;;;24.50;48.70;;;;;;5093404;28;20388;-57
2023/08/12 00:21:43;;;;;;;;;;;24.40;48.70;;;;;;5093620;28;19964;-58
2023/08/12 00:24:10;;;;;;;;;;;24.40;48.70;;;;;;5093818;28;19931;-57
2023/08/12 00:26:37;;;;;;;;;;;24.50;48.80;;;;;;5093626;28;19931;-57
2023/08/12 00:29:04;;;;;;;;;;;24.50;48.80;;;;;;5094068;28;20266;-58
2023/08/12 00:31:31;;;;;;;;;;;24.50;48.80;;;;;;5093783;28;19931;-57
2023/08/12 00:33:58;;;;;;;;;;;24.50;48.80;;;;;;5093693;28;20015;-58
2023/08/12 00:36:25;;;;;;;;;;;24.50;48.80;;;;;;5093838;28;19969;-58
2023/08/12 00:38:52;;;;;;;;;;;24.50;48.80;;;;;;5093614;28;19953;-58
2023/08/12 00:41:19;;;;;;;;;;;24.50;48.80;;;;;;5093615;28;20346;-58
2023/08/12 00:43:46;;;;;;;;;;;24.50;48.80;;;;;;5094042;28;20430;-58
2023/08/12 00:46:13;;;;;;;;;;;24.50;48.80;;;;;;5093819;28;20023;-58
2023/08/12 00:48:40;;;;;;;;;;;24.50;48.80;;;;;;5093701;28;20385;-57
2023/08/12 00:51:07;;;;;;;;;;;24.50;48.80;;;;;;5093213;28;19924;-57
2023/08/12 00:53:35;;;;;;;;;;;24.50;48.80;;;;;;5093590;28;19927;-57
2023/08/12 00:56:03;;;;;;;;;;;24.50;48.80;;;;;;5093463;28;19982;-57
2023/08/12 00:58:30;;;;;;;;;;;24.50;48.80;;;;;;5093245;28;19928;-59
2023/08/12 01:00:57;;;;;;;;;;;24.50;48.80;;;;;;5093253;28;19969;-57
2023/08/12 01:03:24;;;;;;;;;;;24.50;48.80;;;;;;5093475;28;19924;-57
2023/08/12 01:05:52;;;;;;;;;;;24.50;49.40;;;;;;5093754;28;19924;-57
2023/08/12 01:08:19;;;;;;;;;;;24.50;48.90;;;;;;5093283;28;19978;-57
2023/08/12 01:10:49;;;;;;;;;;;24.40;48.90;;;;;;5093267;28;19935;-57
2023/08/12 01:13:25;;;;;;;;;;;24.40;48.90;;;;;;5093493;28;20014;-58
2023/08/12 01:15:54;;;;;;;;;;;24.40;48.90;;;;;;5093534;28;20326;-58
2023/08/12 01:18:22;;;;;;;;;;;24.40;48.90;;;;;;5093382;28;19928;-59
2023/08/12 01:20:49;;;;;;;;;;;24.40;49.00;;;;;;5092870;28;19935;-56
2023/08/12 01:23:16;;;;;;;;;;;24.40;49.00;;;;;;5093557;28;20326;-56
2023/08/12 01:25:43;;;;;;;;;;;24.40;49.00;;;;;;5097378;28;20277;-56
2023/08/12 01:28:10;;;;;;;;;;;24.40;49.00;;;;;;5097205;28;20372;-56
2023/08/12 01:30:44;;;;;;;;;;;24.40;49.00;;;;;;5096973;28;19928;-56
2023/08/12 01:33:29;;;;;;;;;;;24.40;49.00;;;;;;5097005;28;20372;-55
2023/08/12 01:36:03;;;;;;;;;;;24.40;49.00;;;;;;5097135;28;19931;-56
2023/08/12 01:38:31;;;;;;;;;;;24.40;49.00;;;;;;5096735;28;19977;-56
2023/08/12 01:40:59;;;;;;;;;;;24.40;49.00;;;;;;5097296;28;19947;-56
2023/08/12 01:43:26;;;;;;;;;;;24.40;49.10;;;;;;5096666;28;19982;-56
2023/08/12 01:45:52;;;;;;;;;;;24.40;49.10;;;;;;5095694;28;20022;-56
2023/08/12 01:48:22;;;;;;;;;;;24.40;49.10;;;;;;5096794;28;19928;-56
2023/08/12 01:50:50;;;;;;;;;;;24.30;49.10;;;;;;5096678;28;19950;-55
2023/08/12 01:53:17;;;;;;;;;;;24.40;49.10;;;;;;5096718;28;19924;-55
2023/08/12 01:55:44;;;;;;;;;;;24.30;49.10;;;;;;5095089;28;19924;-56
2023/08/12 01:58:12;;;;;;;;;;;24.40;49.20;;;;;;5096645;28;19931;-56
2023/08/12 02:00:39;;;;;;;;;;;24.40;49.20;;;;;;5096860;28;20166;-57
2023/08/12 02:03:06;;;;;;;;;;;24.30;49.20;;;;;;5096799;28;19993;-56
2023/08/12 02:05:34;;;;;;;;;;;24.30;49.30;;;;;;5096755;28;20280;-55
2023/08/12 02:08:00;;;;;;;;;;;24.30;49.20;;;;;;5096208;28;19969;-55
2023/08/12 02:10:28;;;;;;;;;;;24.30;49.20;;;;;;5096397;28;20319;-56
2023/08/12 02:12:55;;;;;;;;;;;24.30;49.20;;;;;;5096630;28;20000;-57
2023/08/12 02:15:22;;;;;;;;;;;24.30;49.20;;;;;;5096708;28;19928;-55
2023/08/12 02:17:49;;;;;;;;;;;24.30;49.20;;;;;;5096461;28;19954;-60
2023/08/12 02:20:16;;;;;;;;;;;24.30;49.40;;;;;;5096151;28;19924;-58
2023/08/12 02:22:43;;;;;;;;;;;24.30;49.20;;;;;;5096268;28;20511;-55
2023/08/12 02:25:10;;;;;;;;;;;24.30;49.20;;;;;;5096537;28;20273;-54
2023/08/12 02:27:37;;;;;;;;;;;24.30;49.20;;;;;;5096072;28;19954;-56
2023/08/12 02:30:05;;;;;;;;;;;24.30;49.20;;;;;;5095861;28;20335;-55
2023/08/12 02:32:32;;;;;;;;;;;24.30;49.20;;;;;;5096180;28;20052;-55
2023/08/12 02:34:59;;;;;;;;;;;24.30;49.20;;;;;;5095713;28;19970;-55
2023/08/12 02:37:26;;;;;;;;;;;24.30;49.20;;;;;;5095180;28;19975;-55
2023/08/12 02:39:53;;;;;;;;;;;24.30;49.20;;;;;;5095664;28;19981;-56
2023/08/12 02:42:20;;;;;;;;;;;24.30;49.20;;;;;;5096017;28;19998;-55
2023/08/12 02:44:47;;;;;;;;;;;24.30;49.50;;;;;;5096152;28;19928;-52
2023/08/12 02:47:14;;;;;;;;;;;24.30;49.30;;;;;;5095622;28;19924;-55
2023/08/12 02:49:41;;;;;;;;;;;24.30;49.30;;;;;;5094212;28;19928;-55
2023/08/12 02:52:09;;;;;;;;;;;24.30;49.30;;;;;;5094359;28;19924;-55
2023/08/12 02:54:36;;;;;;;;;;;24.30;49.30;;;;;;5095970;28;19924;-55
2023/08/12 02:57:03;;;;;;;;;;;24.30;49.30;;;;;;5095448;28;19947;-55
2023/08/12 02:59:30;;;;;;;;;;;24.30;49.30;;;;;;5095400;28;20285;-55
2023/08/12 03:01:57;;;;;;;;;;;24.30;49.30;;;;;;5095576;28;19924;-55
2023/08/12 03:04:25;;;;;;;;;;;24.30;49.30;;;;;;5095407;28;19928;-55
2023/08/12 03:06:52;;;;;;;;;;;24.30;49.30;;;;;;5095358;28;19924;-55
2023/08/12 03:09:20;;;;;;;;;;;24.30;49.30;;;;;;5095051;28;20464;-56
2023/08/12 03:11:47;;;;;;;;;;;24.30;49.30;;;;;;5095089;28;19935;-58
2023/08/12 03:14:14;;;;;;;;;;;24.30;49.30;;;;;;5095193;28;19924;-55
2023/08/12 03:16:41;;;;;;;;;;;24.30;49.30;;;;;;5095324;28;20426;-55
2023/08/12 03:19:08;;;;;;;;;;;24.40;49.30;;;;;;5095409;28;19924;-55
2023/08/12 03:21:36;;;;;;;;;;;24.30;49.30;;;;;;5095060;28;19924;-56
2023/08/12 03:24:03;;;;;;;;;;;24.30;49.30;;;;;;5095068;28;19924;-56
2023/08/12 03:26:30;;;;;;;;;;;24.30;49.30;;;;;;5095085;28;19928;-57
2023/08/12 03:28:57;;;;;;;;;;;24.30;49.30;;;;;;5095215;28;19924;-55
2023/08/12 03:31:24;;;;;;;;;;;24.30;49.30;;;;;;5094585;28;19924;-55
2023/08/12 03:33:51;;;;;;;;;;;24.30;49.30;;;;;;5094376;28;20380;-55
2023/08/12 03:36:18;;;;;;;;;;;24.30;49.30;;;;;;5094723;28;20401;-55
2023/08/12 03:38:45;;;;;;;;;;;24.30;49.30;;;;;;5095048;28;19932;-56
2023/08/12 03:41:12;;;;;;;;;;;24.30;49.60;;;;;;5094891;28;19924;-56
2023/08/12 03:43:39;;;;;;;;;;;24.30;49.40;;;;;;5095014;28;19927;-55
2023/08/12 03:46:06;;;;;;;;;;;24.30;49.40;;;;;;5094345;28;19947;-54
2023/08/12 03:48:33;;;;;;;;;;;24.30;50.00;;;;;;5094407;28;19924;-56
2023/08/12 03:51:00;;;;;;;;;;;24.30;49.40;;;;;;5094283;28;19963;-55
2023/08/12 03:53:27;;;;;;;;;;;24.30;49.40;;;;;;5094687;28;19924;-56
2023/08/12 03:55:54;;;;;;;;;;;24.30;49.40;;;;;;5094471;28;20426;-57
2023/08/12 03:58:21;;;;;;;;;;;24.30;49.40;;;;;;5094723;28;20018;-55
2023/08/12 04:00:48;;;;;;;;;;;24.30;49.40;;;;;;5094272;28;19924;-55
2023/08/12 04:03:15;;;;;;;;;;;24.30;49.40;;;;;;5094575;28;19960;-57
2023/08/12 04:05:50;;;;;;;;;;;24.30;49.40;;;;;;5094300;28;19925;-55
2023/08/12 04:08:18;;;;;;;;;;;24.30;49.40;;;;;;5093792;28;19931;-56
2023/08/12 04:10:46;;;;;;;;;;;24.30;49.40;;;;;;5093989;28;19924;-55
2023/08/12 04:13:13;;;;;;;;;;;24.30;49.30;;;;;;5094368;28;20350;-55
2023/08/12 04:15:40;;;;;;;;;;;24.30;49.30;;;;;;5094179;28;19985;-56
2023/08/12 04:18:07;;;;;;;;;;;24.30;49.30;;;;;;5094042;28;20357;-56
2023/08/12 04:20:36;;;;;;;;;;;24.30;49.30;;;;;;5093884;28;20019;-55
2023/08/12 04:23:03;;;;;;;;;;;24.30;49.30;;;;;;5094010;28;20292;-57
2023/08/12 04:25:30;;;;;;;;;;;24.30;49.30;;;;;;5093900;28;20415;-56
2023/08/12 04:27:58;;;;;;;;;;;24.30;49.30;;;;;;5094123;28;19924;-56
2023/08/12 04:30:26;;;;;;;;;;;24.30;49.20;;;;;;5093777;28;19924;-55
2023/08/12 04:32:53;;;;;;;;;;;24.40;49.30;;;;;;5093858;28;19950;-56
2023/08/12 04:35:20;;;;;;;;;;;24.40;49.20;;;;;;5093728;28;19928;-55
2023/08/12 04:37:47;;;;;;;;;;;24.30;49.20;;;;;;5092481;28;19924;-56
2023/08/12 04:40:14;;;;;;;;;;;24.30;49.20;;;;;;5093719;28;19932;-56
2023/08/12 04:42:42;;;;;;;;;;;24.20;49.20;;;;;;5093388;28;20010;-56
2023/08/12 04:45:10;;;;;;;;;;;24.10;49.50;;;;;;5094260;28;19928;-55
2023/08/12 04:47:37;;;;;;;;;;;23.90;49.80;;;;;;5093749;28;20015;-56
2023/08/12 04:50:04;;;;;;;;;;;23.60;50.20;;;;;;5092169;28;20010;-57
2023/08/12 04:52:32;;;;;;;;;;;23.30;50.50;;;;;;5093635;28;19931;-56
2023/08/12 04:54:59;;;;;;;;;;;23.00;49.30;;;;;;5093929;28;19924;-55
2023/08/12 04:57:26;;;;;;;;;;;22.70;48.40;;;;;;5093459;28;19924;-58
2023/08/12 04:59:53;;;;;;;;;;;22.40;47.60;;;;;;5096444;28;19931;-58
2023/08/12 05:02:20;;;;;;;;;;;22.00;47.20;;;;;;5097890;28;20019;-58
2023/08/12 05:04:49;;;;;;;;;;;21.70;46.60;;;;;;5097611;28;19977;-59
2023/08/12 05:07:16;;;;;;;;;;;21.40;46.80;;;;;;5097272;28;19967;-57
2023/08/12 05:09:44;;;;;;;;;;;21.20;47.70;;;;;;5097585;28;19924;-58
2023/08/12 05:12:11;;;;;;;;;;;20.90;48.60;;;;;;5097482;28;19975;-58
2023/08/12 05:14:39;;;;;;;;;;;20.60;48.20;;;;;;5097341;28;20018;-58
2023/08/12 05:17:08;;;;;;;;;;;20.40;48.30;;;;;;5097336;28;19931;-58
2023/08/12 05:19:35;;;;;;;;;;;20.20;49.30;;;;;;5097389;28;19928;-57
2023/08/12 05:22:02;;;;;;;;;;;20.10;48.80;;;;;;5097624;28;19970;-58
2023/08/12 05:24:29;;;;;;;;;;;19.80;49.00;;;;;;5097767;28;19953;-58
2023/08/12 05:26:56;;;;;;;;;;;19.70;50.10;;;;;;5097103;28;20369;-58
2023/08/12 05:29:23;;;;;;;;;;;19.60;50.00;;;;;;5097215;28;19951;-56
2023/08/12 05:31:50;;;;;;;;;;;19.50;49.50;;;;;;5097115;28;19932;-58
2023/08/12 05:34:17;;;;;;;;;;;19.40;50.70;;;;;;5097430;28;19924;-57
2023/08/12 05:36:44;;;;;;;;;;;19.30;51.00;;;;;;5097238;28;19977;-56
2023/08/12 05:39:11;;;;;;;;;;;19.20;50.60;;;;;;5097403;28;19927;-60
2023/08/12 05:41:39;;;;;;;;;;;19.10;50.50;;;;;;5096691;28;19924;-58
2023/08/12 05:44:06;;;;;;;;;;;19.00;51.50;;;;;;5097228;28;20017;-57
2023/08/12 05:46:33;;;;;;;;;;;18.90;51.00;;;;;;5097067;28;19924;-57
2023/08/12 05:49:00;;;;;;;;;;;18.80;50.90;;;;;;5096566;28;19925;-57
2023/08/12 05:51:27;;;;;;;;;;;18.70;51.90;;;;;;5096721;28;19924;-58
2023/08/12 05:53:57;;;;;;;;;;;18.70;52.10;;;;;;5096708;28;20439;-57
2023/08/12 05:56:24;;;;;;;;;;;18.60;51.40;;;;;;5096601;28;20001;-57
2023/08/12 05:58:51;;;;;;;;;;;18.60;52.00;;;;;;5096824;28;20376;-56
2023/08/12 06:01:18;;;;;;;;;;;18.50;52.70;;;;;;5096700;28;19950;-59
2023/08/12 06:03:45;;;;;;;;;;;18.50;52.20;;;;;;5096512;28;20296;-57
2023/08/12 06:06:14;;;;;;;;;;;18.50;52.70;;;;;;5096288;28;20011;-56
2023/08/12 06:08:41;;;;;;;;;;;18.40;53.00;;;;;;5078205;28;20392;-57
2023/08/12 06:11:08;;;;;;;;;;;18.40;53.00;;;;;;5095894;28;19924;-57
2023/08/12 06:13:35;;;;;;;;;;;18.40;52.30;;;;;;5096797;28;20324;-59
2023/08/12 06:16:02;;;;;;;;;;;18.30;53.20;;;;;;5096110;28;19924;-56
2023/08/12 06:18:29;;;;;;;;;;;18.30;53.60;;;;;;5096733;28;19937;-58
2023/08/12 06:20:56;;;;;;;;;;;18.30;52.70;;;;;;5095924;28;20308;-55
2023/08/12 06:23:23;;;;;;;;;;;18.30;52.70;;;;;;5096513;28;20011;-54
2023/08/12 06:25:53;;;;;;;;;;;18.30;54.20;;;;;;5095938;28;20380;-58
2023/08/12 06:28:20;;;;;;;;;;;18.30;53.70;;;;;;5096104;28;19977;-58
2023/08/12 06:30:48;;;;;;;;;;;18.30;53.00;;;;;;5095553;28;20377;-56
2023/08/12 06:33:15;;;;;;;;;;;18.30;53.60;;;;;;5096239;28;19967;-57
2023/08/12 06:35:42;;;;;;;;;;;18.30;54.10;;;;;;5095702;28;19931;-56
2023/08/12 06:38:09;;;;;;;;;;;18.30;53.30;;;;;;5096207;28;20266;-58
2023/08/12 06:40:38;;;;;;;;;;;18.30;53.50;;;;;;5096060;28;19985;-57
2023/08/12 06:43:07;;;;;;;;;;;18.30;54.50;;;;;;5096089;28;19924;-56
2023/08/12 06:45:34;;;;;;;;;;;18.30;53.30;;;;;;5096089;28;20349;-57
2023/08/12 06:48:04;;;;;;;;;;;18.30;54.30;;;;;;5095986;28;20330;-57
2023/08/12 06:50:33;;;;;;;;;;;18.30;54.20;;;;;;5095856;28;19971;-56
2023/08/12 06:53:00;;;;;;;;;;;18.30;54.40;;;;;;5095761;28;20406;-58
2023/08/12 06:55:27;;;;;;;;;;;18.30;53.90;;;;;;5095891;28;19924;-58
2023/08/12 06:57:54;;;;;;;;;;;18.30;54.00;;;;;;5095643;28;19989;-57
2023/08/12 07:00:21;;;;;;;;;;;18.30;54.10;;;;;;5095572;28;19924;-58
2023/08/12 07:02:48;;;;;;;;;;;18.30;54.40;;;;;;5095474;28;20380;-58
2023/08/12 07:05:15;;;;;;;;;;;18.30;54.90;;;;;;5095700;28;20385;-57
2023/08/12 07:07:42;;;;;;;;;;;18.30;54.90;;;;;;5095469;28;19930;-57
2023/08/12 07:10:10;;;;;;;;;;;18.30;54.80;;;;;;5095239;28;19924;-58
2023/08/12 07:12:37;;;;;;;;;;;18.30;54.20;;;;;;5095340;28;19923;-56
2023/08/12 07:15:04;;;;;;;;;;;18.30;54.40;;;;;;5095398;28;20389;-57
2023/08/12 07:17:32;;;;;;;;;;;18.30;54.10;;;;;;5095485;28;20043;-57
2023/08/12 07:19:59;;;;;;;;;;;18.30;54.00;;;;;;5094951;28;20392;-58
2023/08/12 07:22:26;;;;;;;;;;;18.30;54.50;;;;;;5094252;28;19931;-58
2023/08/12 07:24:53;;;;;;;;;;;18.30;54.70;;;;;;5095015;28;20006;-58
2023/08/12 07:27:19;;;;;;;;;;;18.30;54.60;;;;;;5095168;28;20325;-58
2023/08/12 07:29:47;;;;;;;;;;;18.30;53.90;;;;;;5094776;28;19931;-58
2023/08/12 07:32:14;;;;;;;;;;;18.30;54.60;;;;;;5094780;28;19924;-57
2023/08/12 07:34:41;;;;;;;;;;;18.30;54.70;;;;;;5080184;28;20277;-58
2023/08/12 07:37:08;;;;;;;;;;;18.30;54.80;;;;;;5095054;28;20327;-56
2023/08/12 07:39:35;;;;;;;;;;;18.30;55.80;;;;;;5094574;28;20335;-56
2023/08/12 07:42:03;;;;;;;;;;;18.30;54.20;;;;;;5094378;28;19982;-57
2023/08/12 07:44:30;;;;;;;;;;;18.30;54.30;;;;;;5093259;28;19927;-57
2023/08/12 07:46:57;;;;;;;;;;;18.30;54.10;;;;;;5094357;28;20372;-56
2023/08/12 07:49:24;;;;;;;;;;;18.30;54.90;;;;;;5094544;28;20395;-55
2023/08/12 07:51:51;;;;;;;;;;;18.30;54.30;;;;;;5092981;28;20030;-56
2023/08/12 07:54:18;;;;;;;;;;;18.30;54.00;;;;;;5094272;28;19924;-57
2023/08/12 07:56:45;;;;;;;;;;;18.30;54.00;;;;;;5094153;28;20376;-57
2023/08/12 07:59:12;;;;;;;;;;;18.30;55.20;;;;;;5084670;28;19935;-56
2023/08/12 08:01:39;;;;;;;;;;;18.20;55.90;;;;;;5088409;28;19924;-59
2023/08/12 08:04:06;;;;;;;;;;;18.20;57.50;;;;;;5092532;28;19924;-58
2023/08/12 08:06:34;;;;;;;;;;;18.20;58.20;;;;;;5094282;28;19976;-58
2023/08/12 08:09:03;;;;;;;;;;;18.20;57.90;;;;;;5092336;28;19924;-58
2023/08/12 08:11:30;;;;;;;;;;;18.20;58.40;;;;;;5093960;28;19993;-58
2023/08/12 08:13:58;;;;;;;;;;;18.20;58.20;;;;;;5092357;28;19931;-59
2023/08/12 08:16:25;;;;;;;;;;;18.20;58.10;;;;;;5081495;28;19924;-56
2023/08/12 08:18:52;;;;;;;;;;;18.20;58.00;;;;;;5073600;28;19932;-58
2023/08/12 08:21:19;;;;;;;;;;;18.30;57.00;;;;;;5073885;28;20015;-57
2023/08/12 08:23:46;;;;;;;;;;;18.30;57.50;;;;;;5081732;28;19935;-58
2023/08/12 08:26:15;;;;;;;;;;;18.30;58.00;;;;;;5086744;28;19967;-58
2023/08/12 08:28:42;;;;;;;;;;;18.20;57.80;;;;;;5092784;28;19928;-59
2023/08/12 08:31:09;;;;;;;;;;;18.20;57.70;;;;;;5093985;28;20028;-58
2023/08/12 08:33:37;;;;;;;;;;;18.30;57.60;;;;;;5093641;28;20289;-59
2023/08/12 08:36:04;;;;;;;;;;;18.30;57.90;;;;;;5093282;28;19924;-59
2023/08/12 08:38:31;;;;;;;;;;;18.30;58.00;;;;;;5094022;28;19939;-59
2023/08/12 08:40:58;;;;;;;;;;;18.30;57.30;;;;;;5093527;28;20395;-58
2023/08/12 08:43:28;;;;;;;;;;;18.30;57.80;;;;;;5093920;28;19971;-59
2023/08/12 08:45:55;;;;;;;;;;;18.30;58.30;;;;;;5085170;28;19970;-58
2023/08/12 08:48:22;;;;;;;;;;;18.40;58.50;;;;;;5075205;28;19924;-58
2023/08/12 08:50:51;;;;;;;;;;;18.40;58.80;;;;;;5074658;28;20323;-59
2023/08/12 08:53:18;;;;;;;;;;;18.40;58.40;;;;;;5073324;28;19924;-57
2023/08/12 08:55:45;;;;;;;;;;;18.40;57.90;;;;;;5074357;28;19971;-59
2023/08/12 08:58:12;;;;;;;;;;;18.50;58.80;;;;;;5082237;28;19932;-58
2023/08/12 09:00:46;;;;;;;;;;;18.50;58.50;;;;;;5093561;28;20352;-59
2023/08/12 09:03:14;;;;;;;;;;;18.50;57.90;;;;;;5093722;28;19925;-58
2023/08/12 09:05:42;;;;;;;;;;;18.50;58.50;;;;;;5093718;28;19975;-58
2023/08/12 09:08:11;;;;;;;;;;;18.50;58.30;;;;;;5092959;28;20350;-58
2023/08/12 09:10:39;;;;;;;;;;;18.50;57.70;;;;;;5093587;28;19928;-57
2023/08/12 09:13:08;;;;;;;;;;;18.60;58.30;;;;;;5093587;28;19924;-58
2023/08/12 09:15:35;;;;;;;;;;;18.50;58.20;;;;;;5093170;28;19954;-58
2023/08/12 09:18:06;;;;;;;;;;;18.60;58.20;;;;;;5093010;28;20361;-59
2023/08/12 09:20:33;;;;;;;;;;;18.60;58.40;;;;;;5093454;28;19928;-58
2023/08/12 09:23:02;;;;;;;;;;;18.60;58.00;;;;;;5093230;28;19928;-59
2023/08/12 09:25:29;;;;;;;;;;;18.60;58.20;;;;;;5080563;28;20011;-58
2023/08/12 09:27:59;;;;;;;;;;;18.60;58.10;;;;;;5093009;28;19924;-58
2023/08/12 09:30:31;;;;;;;;;;;18.60;58.60;;;;;;5093163;28;19924;-59
2023/08/12 09:33:00;;;;;;;;;;;18.60;58.20;;;;;;5093099;28;20369;-57
2023/08/12 09:35:32;;;;;;;;;;;18.70;56.50;;;;;;5093053;28;20023;-56
2023/08/12 09:38:03;;;;;;;;;;;18.70;56.60;;;;;;5093191;28;19924;-56
2023/08/12 09:40:31;;;;;;;;;;;18.70;56.60;;;;;;5092905;28;19924;-58
2023/08/12 09:42:58;;;;;;;;;;;18.80;56.70;;;;;;5092477;28;19938;-59
2023/08/12 09:45:26;;;;;;;;;;;18.80;57.20;;;;;;5094960;28;19925;-58
2023/08/12 09:47:54;;;;;;;;;;;18.80;57.50;;;;;;5096897;28;20346;-59
2023/08/12 09:50:22;;;;;;;;;;;18.80;57.00;;;;;;5097163;28;20011;-58
2023/08/12 09:52:50;;;;;;;;;;;18.80;56.70;;;;;;5096514;28;20285;-58
2023/08/12 09:55:17;;;;;;;;;;;18.90;56.50;;;;;;5096817;28;19931;-58
2023/08/12 09:57:47;;;;;;;;;;;18.90;56.50;;;;;;5095216;28;20375;-58
2023/08/12 10:00:18;;;;;;;;;;;18.90;57.00;;;;;;5096598;28;19924;-58
2023/08/12 10:02:46;;;;;;;;;;;18.90;56.80;;;;;;5095175;28;20028;-58
2023/08/12 10:05:25;;;;;;;;;;;18.90;56.50;;;;;;5096609;28;19928;-58
2023/08/12 10:07:53;;;;;;;;;;;18.90;56.50;;;;;;5096677;28;19978;-58
2023/08/12 10:10:24;;;;;;;;;;;18.90;55.90;;;;;;5096516;28;19924;-59
2023/08/12 10:12:51;;;;;;;;;;;18.90;56.70;;;;;;5096245;28;20349;-59
2023/08/12 10:15:18;;;;;;;;;;;18.90;56.00;;;;;;5096609;28;19931;-58
2023/08/12 10:17:45;;;;;;;;;;;18.90;57.10;;;;;;5096096;28;19963;-57
2023/08/12 10:20:13;;;;;;;;;;;19.00;57.00;;;;;;5096354;28;20292;-58
2023/08/12 10:22:43;;;;;;;;;;;19.00;56.90;;;;;;5094909;28;19950;-58
2023/08/12 10:25:13;;;;;;;;;;;19.00;56.40;;;;;;5096296;28;19968;-58
2023/08/12 10:27:40;;;;;;;;;;;19.00;56.00;;;;;;5095517;28;19930;-59
2023/08/12 10:30:10;;;;;;;;;;;19.00;55.50;;;;;;5095856;28;20445;-58
2023/08/12 10:32:38;;;;;;;;;;;19.00;56.10;;;;;;5095883;28;19969;-57
2023/08/12 10:35:06;;;;;;;;;;;19.00;56.10;;;;;;5096213;28;20360;-59
2023/08/12 10:37:33;;;;;;;;;;;19.00;55.20;;;;;;5095810;28;19928;-58
2023/08/12 10:40:07;;;;;;;;;;;19.00;55.20;;;;;;5095807;28;20373;-57
2023/08/12 10:42:42;;;;;;;;;;;19.00;54.50;;;;;;5095972;28;19924;-59
2023/08/12 10:45:12;;;;;;;;;;;18.90;55.80;;;;;;5094777;28;19924;-59
2023/08/12 10:47:44;;;;;;;;;;;18.90;55.70;;;;;;5095881;28;19982;-57
2023/08/12 10:50:21;;;;;;;;;;;18.90;55.90;;;;;;5089021;28;20023;-58
2023/08/12 10:52:52;;;;;;;;;;;18.90;56.30;;;;;;5084798;28;19925;-58
2023/08/12 10:55:21;;;;;;;;;;;18.90;55.30;;;;;;5095741;28;20376;-56
2023/08/12 10:57:48;;;;;;;;;;;18.90;55.70;;;;;;5094352;28;19931;-55
2023/08/12 11:00:21;;;;;;;;;;;18.90;56.10;;;;;;5094817;28;19985;-57
2023/08/12 11:02:52;;;;;;;;;;;18.90;56.10;;;;;;5095775;28;19947;-56
2023/08/12 11:05:20;;;;;;;;;;;18.90;56.10;;;;;;5093648;28;19924;-54
2023/08/12 11:07:51;;;;;;;;;;;18.90;55.80;;;;;;5095281;28;19963;-55
2023/08/12 11:10:21;;;;;;;;;;;18.90;56.20;;;;;;5095693;28;19924;-55
2023/08/12 11:12:55;;;;;;;;;;;18.90;56.50;;;;;;5095117;28;20011;-57
2023/08/12 11:15:36;;;;;;;;;;;18.90;56.20;;;;;;5094161;28;19924;-56
2023/08/12 11:18:05;;;;;;;;;;;18.90;56.20;;;;;;5094901;28;19924;-56
2023/08/12 11:20:32;;;;;;;;;;;18.90;55.80;;;;;;5094991;28;19924;-56
2023/08/12 11:23:02;;;;;;;;;;;18.90;56.50;;;;;;5094770;28;20372;-56
2023/08/12 11:25:29;;;;;;;;;;;19.00;56.10;;;;;;5094889;28;19924;-56
2023/08/12 11:27:57;;;;;;;;;;;18.90;55.90;;;;;;5095216;28;20414;-55
2023/08/12 11:30:24;;;;;;;;;;;18.90;56.30;;;;;;5095414;28;20356;-56
2023/08/12 11:32:55;;;;;;;;;;;18.90;56.30;;;;;;5095095;28;19928;-55
2023/08/12 11:35:22;;;;;;;;;;;18.90;56.20;;;;;;5095287;28;19966;-56
2023/08/12 11:37:52;;;;;;;;;;;18.90;56.20;;;;;;5094572;28;19928;-56
2023/08/12 11:40:20;;;;;;;;;;;18.90;55.80;;;;;;5094752;28;19924;-56
2023/08/12 11:42:47;;;;;;;;;;;18.90;56.00;;;;;;5094867;28;19928;-55
2023/08/12 11:45:16;;;;;;;;;;;18.90;55.50;;;;;;5094788;28;19928;-59
2023/08/12 11:47:43;;;;;;;;;;;18.90;56.20;;;;;;5094794;28;19924;-58
2023/08/12 11:50:11;;;;;;;;;;;18.90;55.20;;;;;;5094925;28;20343;-60
2023/08/12 11:52:38;;;;;;;;;;;18.90;55.30;;;;;;5094564;28;19983;-58
2023/08/12 11:55:06;;;;;;;;;;;18.90;54.80;;;;;;5083233;28;20396;-58
2023/08/12 11:57:34;;;;;;;;;;;18.90;55.30;;;;;;5074132;28;20399;-58
2023/08/12 12:00:05;;;;;;;;;;;18.90;55.40;;;;;;5075054;28;20299;-58
2023/08/12 12:02:35;;;;;;;;;;;18.90;54.80;;;;;;5074079;28;19924;-57
2023/08/12 12:05:05;;;;;;;;;;;18.90;54.80;;;;;;5077873;28;19931;-58
2023/08/12 12:07:33;;;;;;;;;;;18.90;54.90;;;;;;5082925;28;19970;-57
2023/08/12 12:09:59;;;;;;;;;;;18.90;55.80;;;;;;5076880;28;19924;-57
2023/08/12 12:12:26;;;;;;;;;;;18.90;55.40;;;;;;5073546;28;19931;-58
2023/08/12 12:14:54;;;;;;;;;;;18.90;56.10;;;;;;5074239;28;19924;-58
2023/08/12 12:17:22;;;;;;;;;;;19.00;56.10;;;;;;5073789;28;19925;-59
2023/08/12 12:19:57;;;;;;;;;;;18.90;56.80;;;;;;5073677;28;19924;-58
2023/08/12 12:22:32;;;;;;;;;;;19.00;56.70;;;;;;5073616;28;20503;-58
2023/08/12 12:25:00;;;;;;;;;;;19.00;57.00;;;;;;5073677;28;20369;-58
2023/08/12 12:27:27;;;;;;;;;;;19.00;56.90;;;;;;5073945;28;19928;-58
2023/08/12 12:29:54;;;;;;;;;;;19.10;57.20;;;;;;5073634;28;19931;-58
2023/08/12 12:32:21;;;;;;;;;;;19.10;56.90;;;;;;5073768;28;19985;-59
2023/08/12 12:34:48;;;;;;;;;;;19.20;56.90;;;;;;5073638;28;19925;-58
2023/08/12 12:37:15;;;;;;;;;;;19.20;56.70;;;;;;5073910;28;19924;-58
2023/08/12 12:39:43;;;;;;;;;;;19.30;57.40;;;;;;5073462;28;19925;-58
2023/08/12 12:42:11;;;;;;;;;;;19.30;56.60;;;;;;5073464;28;20385;-59
2023/08/12 12:44:38;;;;;;;;;;;19.40;56.90;;;;;;5073516;28;19932;-59
2023/08/12 12:47:05;;;;;;;;;;;19.40;57.40;;;;;;5073420;28;19935;-59
2023/08/12 12:49:33;;;;;;;;;;;19.50;57.00;;;;;;5073266;28;19925;-59
2023/08/12 12:52:00;;;;;;;;;;;19.50;57.00;;;;;;5073551;28;19946;-57
2023/08/12 12:54:30;;;;;;;;;;;19.50;57.10;;;;;;5073709;28;20270;-58
2023/08/12 12:56:57;;;;;;;;;;;19.60;56.90;;;;;;5073516;28;20007;-58
2023/08/12 12:59:24;;;;;;;;;;;19.60;56.70;;;;;;5073554;28;20361;-59
2023/08/12 13:01:51;;;;;;;;;;;19.60;56.80;;;;;;5073371;28;20019;-58
2023/08/12 13:04:19;;;;;;;;;;;19.70;56.90;;;;;;5092560;28;19924;-58
2023/08/12 13:06:46;;;;;;;;;;;19.70;56.90;;;;;;5093527;28;20011;-56
2023/08/12 13:09:13;;;;;;;;;;;19.70;56.80;;;;;;5093165;28;19971;-56
2023/08/12 13:11:40;;;;;;;;;;;19.70;56.50;;;;;;5093633;28;20015;-57
2023/08/12 13:14:07;;;;;;;;;;;19.70;56.50;;;;;;5093766;28;19993;-56
2023/08/12 13:16:34;;;;;;;;;;;19.70;56.40;;;;;;5093340;28;20381;-56
2023/08/12 13:19:02;;;;;;;;;;;19.80;56.80;;;;;;5093654;28;19924;-57
2023/08/12 13:21:29;;;;;;;;;;;19.70;56.80;;;;;;5096657;28;19924;-57
2023/08/12 13:23:56;;;;;;;;;;;19.80;56.80;;;;;;5097429;28;19935;-55
2023/08/12 13:26:22;;;;;;;;;;;19.80;56.70;;;;;;5097234;28;20336;-57
2023/08/12 13:28:49;;;;;;;;;;;19.80;56.90;;;;;;5097652;28;19924;-57
2023/08/12 13:31:17;;;;;;;;;;;19.80;56.80;;;;;;5097088;28;20422;-56
2023/08/12 13:33:44;;;;;;;;;;;19.80;56.70;;;;;;5097383;28;19924;-57
2023/08/12 13:36:11;;;;;;;;;;;19.90;56.90;;;;;;5097270;28;19969;-55
2023/08/12 13:38:38;;;;;;;;;;;19.90;56.70;;;;;;5097326;28;20326;-56
2023/08/12 13:41:05;;;;;;;;;;;19.90;56.50;;;;;;5097054;28;19970;-57
2023/08/12 13:43:33;;;;;;;;;;;19.90;56.50;;;;;;5096922;28;20430;-59
2023/08/12 13:46:00;;;;;;;;;;;19.90;56.50;;;;;;5097036;28;20337;-57
2023/08/12 13:48:27;;;;;;;;;;;19.90;56.30;;;;;;5096883;28;20372;-56
2023/08/12 13:50:54;;;;;;;;;;;19.90;56.40;;;;;;5097197;28;19931;-55
2023/08/12 13:53:24;;;;;;;;;;;19.90;56.50;;;;;;5096771;28;19924;-57
2023/08/12 13:55:51;;;;;;;;;;;19.90;56.40;;;;;;5097084;28;19974;-56
2023/08/12 13:58:18;;;;;;;;;;;19.90;56.50;;;;;;5096690;28;19977;-57
2023/08/12 14:00:46;;;;;;;;;;;20.00;56.80;;;;;;5096555;28;19928;-57
2023/08/12 14:03:13;;;;;;;;;;;20.00;56.80;;;;;;5097052;28;19977;-57
2023/08/12 14:05:40;;;;;;;;;;;19.90;62.40;;;;;;5096653;28;19931;-57
2023/08/12 14:08:07;;;;;;;;;;;20.20;68.30;;;;;;5096532;28;19947;-57
2023/08/12 14:10:34;;;;;;;;;;;20.40;70.20;;;;;;5096594;28;20368;-57
2023/08/12 14:13:01;;;;;;;;;;;20.70;71.60;;;;;;5096300;28;19928;-56
2023/08/12 14:15:28;;;;;;;;;;;20.90;71.40;;;;;;5096625;28;19924;-58
2023/08/12 14:17:56;;;;;;;;;;;21.20;71.30;;;;;;5096665;28;20269;-57
2023/08/12 14:20:23;;;;;;;;;;;21.50;71.20;;;;;;5096128;28;19930;-57